createdAt,value
2022-08-10T00:00:38.656Z,19.60
2022-08-10T00:03:07.759Z,19.60
2022-08-10T00:05:43.193Z,19.60
2022-08-10T00:08:23.546Z,19.60
2022-08-10T00:10:54.567Z,19.60
2022-08-10T00:13:21.706Z,19.60
2022-08-10T00:15:53.804Z,19.60
2022-08-10T00:18:34.626Z,20.30
2022-08-10T00:21:04.575Z,20.30
2022-08-10T00:23:31.341Z,19.60
2022-08-10T00:26:00.348Z,19.80
2022-08-10T00:28:29.668Z,19.80
2022-08-10T00:30:58.591Z,19.60
2022-08-10T00:33:25.334Z,19.50
2022-08-10T00:35:52.102Z,19.50
2022-08-10T00:38:21.320Z,19.90
2022-08-10T00:40:50.250Z,19.50
2022-08-10T00:43:23.922Z,19.50
2022-08-10T00:45:59.274Z,19.90
2022-08-10T00:48:30.480Z,19.40
2022-08-10T00:50:59.784Z,19.40
2022-08-10T00:53:27.546Z,19.40
2022-08-10T00:57:14.045Z,19.30
2022-08-10T00:58:43.621Z,19.30
2022-08-10T01:02:11.064Z,19.30
2022-08-10T01:04:39.612Z,19.30
2022-08-10T01:07:07.705Z,19.20
2022-08-10T01:09:59.816Z,19.20
2022-08-10T01:12:53.538Z,19.20
2022-08-10T01:15:26.235Z,19.20
2022-08-10T01:17:54.358Z,19.10
2022-08-10T01:21:01.425Z,19.20
2022-08-10T01:23:39.436Z,19.20
2022-08-10T01:26:31.355Z,19.20
2022-08-10T01:29:41.526Z,19.10
2022-08-10T01:32:09.053Z,19.10
2022-08-10T01:35:11.012Z,19.10
2022-08-10T01:37:41.766Z,18.10
2022-08-10T01:40:09.977Z,19.00
2022-08-10T01:42:39.302Z,19.00
2022-08-10T01:45:06.424Z,19.00
2022-08-10T01:47:59.781Z,19.00
2022-08-10T01:50:33.774Z,18.80
2022-08-10T01:53:07.922Z,18.90
2022-08-10T01:55:34.640Z,18.90
2022-08-10T01:58:04.034Z,18.90
2022-08-10T02:00:35.600Z,20.20
2022-08-10T02:03:04.987Z,18.90
2022-08-10T02:05:31.748Z,18.80
2022-08-10T02:07:58.765Z,18.90
2022-08-10T02:10:25.522Z,19.20
2022-08-10T02:12:56.550Z,18.80
2022-08-10T02:15:23.814Z,19.00
2022-08-10T02:17:59.157Z,18.80
2022-08-10T02:20:41.804Z,18.80
2022-08-10T02:23:38.366Z,18.80
2022-08-10T02:26:05.154Z,19.50
2022-08-10T02:28:33.435Z,19.00
2022-08-10T02:31:06.481Z,18.70
2022-08-10T02:33:38.109Z,18.70
2022-08-10T02:36:08.967Z,18.70
2022-08-10T02:38:58.597Z,18.90
2022-08-10T02:45:03.265Z,18.60
2022-08-10T02:45:24.536Z,18.80
2022-08-10T02:47:51.607Z,18.60
2022-08-10T02:50:30.136Z,18.60
2022-08-10T02:53:49.496Z,18.50
2022-08-10T02:56:14.915Z,18.50
2022-08-10T02:58:44.389Z,18.50
2022-08-10T03:01:18.246Z,18.80
2022-08-10T03:03:52.526Z,18.50
2022-08-10T03:06:23.581Z,18.40
2022-08-10T03:08:50.307Z,19.10
2022-08-10T03:12:36.018Z,18.40
2022-08-10T03:14:17.417Z,18.40
2022-08-10T03:16:46.834Z,18.90
2022-08-10T03:20:34.133Z,18.40
2022-08-10T03:22:00.563Z,18.40
2022-08-10T03:24:32.795Z,18.30
2022-08-10T03:27:00.502Z,18.30
2022-08-10T03:29:27.356Z,18.30
2022-08-10T03:31:54.075Z,18.30
2022-08-10T03:34:33.123Z,18.50
2022-08-10T03:37:02.909Z,18.30
2022-08-10T03:39:29.738Z,18.20
2022-08-10T03:41:59.540Z,18.20
2022-08-10T03:44:28.953Z,18.20
2022-08-10T03:46:55.939Z,18.20
2022-08-10T03:49:24.839Z,18.20
2022-08-10T03:51:51.694Z,18.10
2022-08-10T03:54:18.643Z,18.10
2022-08-10T03:56:47.889Z,18.10
2022-08-10T03:59:15.685Z,18.10
2022-08-10T04:02:52.006Z,18.50
2022-08-10T04:04:35.883Z,18.10
2022-08-10T04:07:02.934Z,18.00
2022-08-10T04:09:54.207Z,18.10
2022-08-10T04:12:20.720Z,18.20
2022-08-10T04:14:52.742Z,18.00
2022-08-10T04:18:03.252Z,18.10
2022-08-10T04:20:34.706Z,18.30
2022-08-10T04:23:06.794Z,18.10
2022-08-10T04:25:33.920Z,18.10
2022-08-10T04:28:01.300Z,18.10
2022-08-10T04:30:30.446Z,18.20
2022-08-10T04:32:57.256Z,18.20
2022-08-10T04:35:24.131Z,18.20
2022-08-10T04:37:51.535Z,18.20
2022-08-10T04:40:29.102Z,19.10
2022-08-10T04:43:07.446Z,18.80
2022-08-10T04:45:50.422Z,18.40
2022-08-10T04:48:40.466Z,18.40
2022-08-10T04:51:06.693Z,18.30
2022-08-10T04:54:04.827Z,18.40
2022-08-10T04:56:32.150Z,18.40
2022-08-10T04:59:02.078Z,18.50
2022-08-10T05:02:22.415Z,19.10
2022-08-10T05:04:35.956Z,18.60
2022-08-10T05:07:16.020Z,18.60
2022-08-10T05:10:00.523Z,18.70
2022-08-10T05:12:35.825Z,19.00
2022-08-10T05:15:07.736Z,19.40
2022-08-10T05:17:35.881Z,19.90
2022-08-10T05:20:07.661Z,20.20
2022-08-10T05:22:36.624Z,20.10
2022-08-10T05:25:07.147Z,20.00
2022-08-10T05:27:36.706Z,20.00
2022-08-10T05:30:07.031Z,19.90
2022-08-10T05:32:57.796Z,19.90
2022-08-10T05:35:21.438Z,19.90
2022-08-10T05:38:10.202Z,20.90
2022-08-10T05:40:35.967Z,20.00
2022-08-10T05:43:02.789Z,20.30
2022-08-10T05:45:29.691Z,20.50
2022-08-10T05:48:53.924Z,20.80
2022-08-10T05:50:43.252Z,20.80
2022-08-10T05:53:59.923Z,20.90
2022-08-10T05:55:59.554Z,20.80
2022-08-10T05:58:27.029Z,20.70
2022-08-10T06:00:56.561Z,20.70
2022-08-10T06:03:27.180Z,20.60
2022-08-10T06:05:57.328Z,20.60
2022-08-10T06:08:28.387Z,21.40
2022-08-10T06:12:24.156Z,20.50
2022-08-10T06:14:13.626Z,20.70
2022-08-10T06:16:43.945Z,21.10
2022-08-10T06:19:15.517Z,21.70
2022-08-10T06:22:00.435Z,22.30
2022-08-10T06:24:33.466Z,22.80
2022-08-10T06:27:02.734Z,23.30
2022-08-10T06:29:30.907Z,23.40
2022-08-10T06:31:57.663Z,23.10
2022-08-10T06:34:38.105Z,22.80
2022-08-10T06:37:05.835Z,22.40
2022-08-10T06:39:35.880Z,22.00
2022-08-10T06:42:17.913Z,21.70
2022-08-10T06:45:06.274Z,21.50
2022-08-10T06:47:41.686Z,21.20
2022-08-10T06:50:12.917Z,21.10
2022-08-10T06:52:39.707Z,21.00
2022-08-10T06:55:12.202Z,20.90
2022-08-10T06:57:43.806Z,20.90
2022-08-10T07:00:11.250Z,20.90
2022-08-10T07:03:00.064Z,20.80
2022-08-10T07:05:29.980Z,20.80
2022-08-10T07:08:00.290Z,20.80
2022-08-10T07:10:41.134Z,20.80
2022-08-10T07:13:13.534Z,20.70
2022-08-10T07:15:59.572Z,20.80
2022-08-10T07:18:27.107Z,20.70
2022-08-10T07:20:56.574Z,20.70
2022-08-10T07:23:58.395Z,20.70
2022-08-10T07:26:13.473Z,20.70
2022-08-10T07:28:47.528Z,20.80
2022-08-10T07:31:29.773Z,20.70
2022-08-10T07:34:07.263Z,20.80
2022-08-10T07:36:37.688Z,20.90
2022-08-10T07:39:05.338Z,20.90
2022-08-10T07:41:32.340Z,20.90
2022-08-10T07:44:04.276Z,20.90
2022-08-10T07:46:31.243Z,20.90
2022-08-10T07:49:19.068Z,21.00
2022-08-10T07:51:46.977Z,21.00
2022-08-10T07:54:24.343Z,21.00
2022-08-10T07:56:55.669Z,21.10
2022-08-10T07:59:31.964Z,21.00
2022-08-10T08:01:58.953Z,21.00
2022-08-10T08:04:27.957Z,21.00
2022-08-10T08:06:54.770Z,20.90
2022-08-10T08:09:23.660Z,20.90
2022-08-10T08:11:50.546Z,21.00
2022-08-10T08:14:19.348Z,21.00
2022-08-10T08:16:46.949Z,21.00
2022-08-10T08:19:38.033Z,21.10
2022-08-10T08:24:14.655Z,21.10
2022-08-10T08:24:52.419Z,21.20
2022-08-10T08:27:19.900Z,21.20
2022-08-10T08:29:49.990Z,21.20
2022-08-10T08:32:22.704Z,21.20
2022-08-10T08:34:59.452Z,21.30
2022-08-10T08:38:28.853Z,21.30
2022-08-10T08:40:29.587Z,21.30
2022-08-10T08:43:50.767Z,21.40
2022-08-10T08:46:58.798Z,21.40
2022-08-10T08:50:10.184Z,21.50
2022-08-10T08:53:21.435Z,21.50
2022-08-10T08:56:07.472Z,21.60
2022-08-10T08:59:18.653Z,21.50
2022-08-10T09:02:18.849Z,21.60
2022-08-10T09:05:07.193Z,21.60
2022-08-10T09:08:02.234Z,21.60
2022-08-10T09:10:43.823Z,21.60
2022-08-10T09:13:17.790Z,21.70
2022-08-10T09:16:03.549Z,21.60
2022-08-10T09:18:51.822Z,21.50
2022-08-10T09:21:36.209Z,21.60
2022-08-10T09:24:38.476Z,21.60
2022-08-10T09:27:11.995Z,21.70
2022-08-10T09:29:45.105Z,21.70
2022-08-10T09:36:13.944Z,21.80
2022-08-10T09:36:23.685Z,21.70
2022-08-10T09:38:45.016Z,21.70
2022-08-10T09:41:29.742Z,21.70
2022-08-10T09:44:27.543Z,21.80
2022-08-10T09:47:22.516Z,21.80
2022-08-10T09:51:28.453Z,21.90
2022-08-10T09:53:46.845Z,22.00
2022-08-10T09:56:36.305Z,22.00
2022-08-10T10:00:00.203Z,22.10
2022-08-10T10:02:56.237Z,22.20
2022-08-10T10:05:31.017Z,22.20
2022-08-10T10:08:21.971Z,22.20
2022-08-10T10:11:00.633Z,22.30
2022-08-10T10:14:03.708Z,22.40
2022-08-10T10:16:47.687Z,22.40
2022-08-10T10:19:58.789Z,22.40
2022-08-10T10:23:06.089Z,22.40
2022-08-10T10:26:01.147Z,22.30
2022-08-10T10:29:15.132Z,22.30
2022-08-10T10:31:29.133Z,22.30
2022-08-10T10:34:17.727Z,22.30
2022-08-10T10:36:47.635Z,22.30
2022-08-10T10:39:15.489Z,22.30
2022-08-10T10:42:04.415Z,22.50
2022-08-10T10:44:46.681Z,22.70
2022-08-10T10:47:38.372Z,22.90
2022-08-10T10:50:41.503Z,23.10
2022-08-10T10:53:45.691Z,23.30
2022-08-10T10:56:31.142Z,23.50
2022-08-10T10:59:53.745Z,23.60
2022-08-10T11:02:18.297Z,23.80
2022-08-10T11:04:57.210Z,24.00
2022-08-10T11:07:33.906Z,24.20
2022-08-10T11:10:32.490Z,24.30
2022-08-10T11:14:23.071Z,24.40
2022-08-10T11:16:21.331Z,24.60
2022-08-10T11:18:56.222Z,24.60
2022-08-10T11:21:50.871Z,24.70
2022-08-10T11:24:48.837Z,24.60
2022-08-10T11:27:55.153Z,24.40
2022-08-10T11:30:30.016Z,24.20
2022-08-10T11:33:46.745Z,24.00
2022-08-10T11:36:30.526Z,23.90
2022-08-10T11:39:14.825Z,23.80
2022-08-10T11:42:07.171Z,23.70
2022-08-10T11:44:57.039Z,23.50
2022-08-10T11:47:36.053Z,23.50
2022-08-10T11:50:11.818Z,23.50
2022-08-10T11:52:46.289Z,23.70
2022-08-10T11:55:20.362Z,23.70
2022-08-10T11:57:53.924Z,23.70
2022-08-10T12:00:23.223Z,23.90
2022-08-10T12:02:58.365Z,24.00
2022-08-10T12:05:48.287Z,24.10
2022-08-10T12:10:07.865Z,24.30
2022-08-10T12:11:24.407Z,24.40
2022-08-10T12:14:22.802Z,24.60
2022-08-10T12:16:59.455Z,24.70
2022-08-10T12:19:59.080Z,24.70
2022-08-10T12:22:48.734Z,24.70
2022-08-10T12:25:57.183Z,24.60
2022-08-10T12:28:16.559Z,24.50
2022-08-10T12:30:49.380Z,24.40
2022-08-10T12:34:01.396Z,24.30
2022-08-10T12:36:32.493Z,24.30
2022-08-10T12:39:22.062Z,24.20
2022-08-10T12:41:53.768Z,24.30
2022-08-10T12:44:41.245Z,24.30
2022-08-10T12:47:34.596Z,24.30
2022-08-10T12:50:31.024Z,24.40
2022-08-10T12:53:40.134Z,24.50
2022-08-10T12:56:07.072Z,24.50
2022-08-10T12:58:59.077Z,24.50
2022-08-10T13:02:07.711Z,24.50
2022-08-10T13:04:33.314Z,24.40
2022-08-10T13:07:01.099Z,24.50
2022-08-10T13:09:30.481Z,24.60
2022-08-10T13:12:38.935Z,24.60
2022-08-10T13:15:00.024Z,24.70
2022-08-10T13:17:39.566Z,24.80
2022-08-10T13:20:19.452Z,24.90
2022-08-10T13:22:47.494Z,25.00
2022-08-10T13:25:14.475Z,25.00
2022-08-10T13:28:02.506Z,25.00
2022-08-10T13:30:33.684Z,25.00
2022-08-10T13:33:09.785Z,25.00
2022-08-10T13:35:36.750Z,24.90
2022-08-10T13:38:04.961Z,24.80
2022-08-10T13:40:32.092Z,24.70
2022-08-10T13:42:59.722Z,24.70
2022-08-10T13:45:29.082Z,24.70
2022-08-10T13:48:09.095Z,24.80
2022-08-10T13:50:37.589Z,24.90
2022-08-10T13:53:15.772Z,25.00
2022-08-10T13:55:53.843Z,25.10
2022-08-10T13:58:31.831Z,25.30
2022-08-10T14:01:00.204Z,25.50
2022-08-10T14:03:29.651Z,25.60
2022-08-10T14:05:56.790Z,25.80
2022-08-10T14:08:30.363Z,25.90
2022-08-10T14:11:11.121Z,25.80
2022-08-10T14:14:02.900Z,25.80
2022-08-10T14:16:31.776Z,25.70
2022-08-10T14:19:02.635Z,25.60
2022-08-10T14:21:31.553Z,25.50
2022-08-10T14:24:00.436Z,25.50
2022-08-10T14:26:32.986Z,25.40
2022-08-10T14:29:09.089Z,25.40
2022-08-10T14:31:37.207Z,25.40
2022-08-10T14:34:05.171Z,26.00
2022-08-10T14:36:36.919Z,26.80
2022-08-10T14:39:04.101Z,27.10
2022-08-10T14:42:03.792Z,27.10
2022-08-10T14:44:24.692Z,26.90
2022-08-10T14:46:54.451Z,26.50
2022-08-10T14:49:26.405Z,26.00
2022-08-10T14:52:01.385Z,25.70
2022-08-10T14:54:32.279Z,25.40
2022-08-10T14:57:11.543Z,25.20
2022-08-10T15:00:22.463Z,25.00
2022-08-10T15:02:53.049Z,24.90
2022-08-10T15:05:27.641Z,24.70
2022-08-10T15:08:06.263Z,24.60
2022-08-10T15:10:35.139Z,24.50
2022-08-10T15:13:03.623Z,24.40
2022-08-10T15:15:31.793Z,24.40
2022-08-10T15:18:17.684Z,24.40
2022-08-10T15:20:44.490Z,24.40
2022-08-10T15:23:31.236Z,24.30
2022-08-10T15:26:03.814Z,24.30
2022-08-10T15:29:22.385Z,24.30
2022-08-10T15:31:33.558Z,24.30
2022-08-10T15:34:21.548Z,24.30
2022-08-10T15:37:37.038Z,24.30
2022-08-10T15:40:25.444Z,24.30
2022-08-10T15:43:05.751Z,24.30
2022-08-10T15:45:55.015Z,24.20
2022-08-10T15:48:21.837Z,24.20
2022-08-10T15:50:50.110Z,24.30
2022-08-10T15:53:28.311Z,24.30
2022-08-10T15:55:57.107Z,24.30
2022-08-10T15:58:40.040Z,24.30
2022-08-10T16:02:13.289Z,24.20
2022-08-10T16:04:20.008Z,24.20
2022-08-10T16:07:00.739Z,24.10
2022-08-10T16:10:21.906Z,24.10
2022-08-10T16:12:29.428Z,24.00
2022-08-10T16:14:56.996Z,24.00
2022-08-10T16:17:26.044Z,24.00
2022-08-10T16:19:55.175Z,23.90
2022-08-10T16:22:35.751Z,23.90
2022-08-10T16:25:13.816Z,23.90
2022-08-10T16:27:40.552Z,23.90
2022-08-10T16:30:10.312Z,23.90
2022-08-10T16:32:37.086Z,23.90
2022-08-10T16:35:08.945Z,23.90
2022-08-10T16:37:58.162Z,23.90
2022-08-10T16:40:26.899Z,23.90
2022-08-10T16:42:54.017Z,23.80
2022-08-10T16:45:33.314Z,23.80
2022-08-10T16:48:00.296Z,23.80
2022-08-10T16:50:38.505Z,23.70
2022-08-10T16:53:07.119Z,23.60
2022-08-10T16:55:48.907Z,23.50
2022-08-10T16:58:21.680Z,23.50
2022-08-10T17:00:48.496Z,23.40
2022-08-10T17:03:22.269Z,23.40
2022-08-10T17:06:11.541Z,23.30
2022-08-10T17:08:55.491Z,23.30
2022-08-10T17:11:29.344Z,23.30
2022-08-10T17:14:01.267Z,23.20
2022-08-10T17:16:36.729Z,23.20
2022-08-10T17:19:03.723Z,23.20
2022-08-10T17:21:35.336Z,23.20
2022-08-10T17:24:05.030Z,23.20
2022-08-10T17:26:38.417Z,23.20
2022-08-10T17:29:53.423Z,23.10
2022-08-10T17:32:06.712Z,23.10
2022-08-10T17:34:41.672Z,23.10
2022-08-10T17:37:13.453Z,23.10
2022-08-10T17:39:57.125Z,23.00
2022-08-10T17:42:25.028Z,23.00
2022-08-10T17:44:53.016Z,23.00
2022-08-10T17:47:24.389Z,23.10
2022-08-10T17:49:57.522Z,23.00
2022-08-10T17:52:29.452Z,23.00
2022-08-10T17:55:06.306Z,23.00
2022-08-10T17:57:37.702Z,22.90
2022-08-10T18:00:06.066Z,22.90
2022-08-10T18:02:39.153Z,22.90
2022-08-10T18:05:07.328Z,22.90
2022-08-10T18:07:38.630Z,22.80
2022-08-10T18:10:09.274Z,22.80
2022-08-10T18:13:08.572Z,22.80
2022-08-10T18:15:39.262Z,22.70
2022-08-10T18:18:06.526Z,22.70
2022-08-10T18:20:40.061Z,22.70
2022-08-10T18:23:07.238Z,22.70
2022-08-10T18:25:36.819Z,22.70
2022-08-10T18:28:06.140Z,22.60
2022-08-10T18:30:48.136Z,22.60
2022-08-10T18:33:15.918Z,22.60
2022-08-10T18:35:48.845Z,22.60
2022-08-10T18:38:16.036Z,22.50
2022-08-10T18:40:45.013Z,22.50
2022-08-10T18:44:07.323Z,22.50
2022-08-10T18:46:01.541Z,22.50
2022-08-10T18:48:34.498Z,22.50
2022-08-10T18:51:05.674Z,22.50
2022-08-10T18:53:35.997Z,22.50
2022-08-10T18:56:35.069Z,22.50
2022-08-10T18:59:06.443Z,22.40
2022-08-10T19:02:01.601Z,22.40
2022-08-10T19:04:40.220Z,22.30
2022-08-10T19:07:34.832Z,22.30
2022-08-10T19:10:12.312Z,22.30
2022-08-10T19:12:53.137Z,22.20
2022-08-10T19:15:27.830Z,22.20
2022-08-10T19:18:42.123Z,22.20
2022-08-10T19:21:16.180Z,22.20
2022-08-10T19:23:48.302Z,22.20
2022-08-10T19:26:44.737Z,22.20
2022-08-10T19:30:11.728Z,22.20
2022-08-10T19:32:37.399Z,22.20
2022-08-10T19:35:13.121Z,22.20
2022-08-10T19:38:06.960Z,22.20
2022-08-10T19:41:09.576Z,22.20
2022-08-10T19:44:01.725Z,22.10
2022-08-10T19:46:42.796Z,22.10
2022-08-10T19:49:31.215Z,22.10
2022-08-10T19:52:11.936Z,22.10
2022-08-10T19:54:41.786Z,22.10
2022-08-10T19:57:15.198Z,22.10
2022-08-10T20:00:16.601Z,22.10
2022-08-10T20:03:04.273Z,22.00
2022-08-10T20:06:19.144Z,22.00
2022-08-10T20:08:52.708Z,21.90
2022-08-10T20:11:45.659Z,21.90
2022-08-10T20:14:22.343Z,21.90
2022-08-10T20:16:56.252Z,21.80
2022-08-10T20:19:53.643Z,21.80
2022-08-10T20:22:19.731Z,21.80
2022-08-10T20:25:05.136Z,21.70
2022-08-10T20:27:57.826Z,21.70
2022-08-10T20:30:26.655Z,21.60
2022-08-10T20:33:00.183Z,21.60
2022-08-10T20:35:28.625Z,21.60
2022-08-10T20:38:08.964Z,21.50
2022-08-10T20:40:46.287Z,21.50
2022-08-10T20:43:44.050Z,21.50
2022-08-10T20:46:37.958Z,21.50
2022-08-10T20:49:23.829Z,21.50
2022-08-10T20:51:58.447Z,21.50
2022-08-10T20:54:36.816Z,21.40
2022-08-10T20:57:56.903Z,21.40
2022-08-10T21:00:24.579Z,21.40
2022-08-10T21:03:43.878Z,21.40
2022-08-10T21:06:54.174Z,21.30
2022-08-10T21:09:34.016Z,21.30
2022-08-10T21:12:06.608Z,21.30
2022-08-10T21:14:58.327Z,21.30
2022-08-10T21:17:38.129Z,21.20
2022-08-10T21:23:31.905Z,21.20
2022-08-10T21:26:10.438Z,21.10
2022-08-10T21:28:49.851Z,21.10
2022-08-10T21:31:38.311Z,21.10
2022-08-10T21:34:34.239Z,21.00
2022-08-10T21:37:14.194Z,21.00
2022-08-10T21:40:34.523Z,21.00
2022-08-10T21:43:44.729Z,21.00
2022-08-10T21:47:01.751Z,20.90
2022-08-10T21:50:04.401Z,20.90
2022-08-10T21:53:04.938Z,21.00
2022-08-10T21:56:20.470Z,20.90
2022-08-10T21:59:12.517Z,20.90
2022-08-10T22:02:06.125Z,20.90
2022-08-10T22:04:52.369Z,20.80
2022-08-10T22:07:38.029Z,20.80
2022-08-10T22:10:25.921Z,20.80
2022-08-10T22:13:19.649Z,20.70
2022-08-10T22:16:11.401Z,20.70
2022-08-10T22:19:02.246Z,20.60
2022-08-10T22:22:19.707Z,20.50
2022-08-10T22:25:20.991Z,20.50
2022-08-10T22:28:15.669Z,20.50
2022-08-10T22:31:28.078Z,21.20
2022-08-10T22:34:33.230Z,20.50
2022-08-10T22:37:31.698Z,20.50
2022-08-10T22:40:29.481Z,20.40
2022-08-10T22:43:35.355Z,20.40
2022-08-10T22:46:26.931Z,20.30
2022-08-10T22:48:59.810Z,20.30
2022-08-10T22:51:40.627Z,20.30
2022-08-10T22:54:33.402Z,20.30
2022-08-10T22:57:19.218Z,20.30
2022-08-10T22:59:46.132Z,20.30
2022-08-10T23:02:18.266Z,20.30
2022-08-10T23:05:09.331Z,20.30
2022-08-10T23:07:47.442Z,20.30
2022-08-10T23:10:15.051Z,20.30
2022-08-10T23:12:55.104Z,20.20
2022-08-10T23:15:43.866Z,20.20
2022-08-10T23:18:31.683Z,20.20
2022-08-10T23:21:00.472Z,20.20
2022-08-10T23:23:28.697Z,20.20
2022-08-10T23:25:58.359Z,20.20
2022-08-10T23:28:58.467Z,20.10
2022-08-10T23:31:14.979Z,20.10
2022-08-10T23:33:42.030Z,20.00
2022-08-10T23:36:34.085Z,20.10
2022-08-10T23:39:24.327Z,20.10
2022-08-10T23:41:52.831Z,20.10
2022-08-10T23:44:21.053Z,20.00
2022-08-10T23:46:48.079Z,20.00
2022-08-10T23:49:14.814Z,20.00
2022-08-10T23:51:56.523Z,20.00
2022-08-10T23:54:24.071Z,20.00
2022-08-10T23:57:01.356Z,20.00
2022-08-10T23:59:28.503Z,19.90
